Air Navigation Services of Czech Republic
Airport: LKMT Updated:  25.05.2018 02:30:07  UTC
 METAR LKMT 25.05. 02:30 ...
METAR LKMT 250230Z 03004KT CAVOK 12/10 Q1019 NOSIG RMK REG QNH 1016=
 TAF LKMT 24.05. 23:00 ...
TAF LKMT 242300Z 2500/2606 04010KT CAVOK      PROB40 TEMPO 2511/2522 05012G24KT 7000 SHRA SCT020CB BKN025=